createdAt,value
2022-11-29T00:02:02.845Z,20.40
2022-11-29T00:06:32.321Z,20.15
2022-11-29T00:10:54.380Z,18.67
2022-11-29T00:15:16.498Z,19.55
2022-11-29T00:19:38.439Z,19.52
2022-11-29T00:24:00.285Z,20.73
2022-11-29T00:28:22.466Z,21.15
2022-11-29T00:32:44.403Z,22.13
2022-11-29T00:37:06.396Z,21.67
2022-11-29T00:41:28.385Z,19.83
2022-11-29T00:45:50.355Z,19.70
2022-11-29T00:50:12.532Z,21.35
2022-11-29T00:54:34.456Z,23.05
2022-11-29T00:58:56.358Z,20.95
2022-11-29T01:03:18.462Z,23.40
2022-11-29T01:07:40.503Z,23.58
2022-11-29T01:12:02.433Z,23.83
2022-11-29T01:16:24.642Z,22.55
2022-11-29T01:20:46.333Z,20.25
2022-11-29T01:25:11.418Z,25.15
2022-11-29T01:29:33.486Z,24.75
2022-11-29T01:34:01.692Z,22.00
2022-11-29T01:38:23.514Z,22.38
2022-11-29T01:42:45.554Z,23.98
2022-11-29T01:47:11.906Z,26.65
2022-11-29T01:51:35.978Z,24.52
2022-11-29T01:56:03.764Z,27.58
2022-11-29T02:00:25.715Z,23.80
2022-11-29T02:04:48.354Z,26.13
2022-11-29T02:09:22.736Z,28.02
2022-11-29T02:14:21.151Z,25.33
2022-11-29T02:18:57.209Z,28.27
2022-11-29T02:24:06.016Z,30.30
2022-11-29T02:28:58.325Z,26.38
2022-11-29T02:33:55.003Z,26.20
2022-11-29T02:38:57.214Z,28.20
2022-11-29T02:43:43.423Z,27.48
2022-11-29T02:48:34.590Z,24.45
2022-11-29T02:53:38.183Z,25.52
2022-11-29T02:58:27.809Z,27.98
2022-11-29T03:03:01.347Z,26.02
2022-11-29T03:07:41.813Z,28.05
2022-11-29T03:12:38.908Z,29.33
2022-11-29T03:17:25.035Z,25.70
2022-11-29T03:21:56.565Z,27.13
2022-11-29T03:26:56.192Z,26.48
2022-11-29T03:31:40.756Z,23.17
2022-11-29T03:36:21.673Z,24.15
2022-11-29T03:41:18.860Z,26.55
2022-11-29T03:45:52.147Z,26.38
2022-11-29T03:50:23.382Z,24.90
2022-11-29T03:55:31.462Z,26.00
2022-11-29T04:00:10.883Z,24.92
2022-11-29T04:04:50.320Z,24.98
2022-11-29T04:09:30.013Z,22.27
2022-11-29T04:14:59.214Z,25.35
2022-11-29T04:20:15.556Z,28.42
2022-11-29T04:24:55.392Z,26.10
2022-11-29T04:29:17.239Z,26.58
2022-11-29T04:34:14.084Z,27.63
2022-11-29T04:38:48.038Z,24.67
2022-11-29T04:43:39.769Z,30.10
2022-11-29T04:49:03.452Z,27.67
2022-11-29T04:53:41.367Z,27.77
2022-11-29T04:58:21.237Z,29.30
2022-11-29T05:03:20.396Z,30.27
2022-11-29T05:08:19.847Z,28.50
2022-11-29T05:12:59.643Z,32.90
2022-11-29T05:17:38.508Z,30.67
2022-11-29T05:22:31.582Z,31.73
2022-11-29T05:27:45.296Z,27.13
2022-11-29T05:32:28.779Z,32.33
2022-11-29T05:37:01.968Z,29.95
2022-11-29T05:42:10.425Z,29.63
2022-11-29T05:46:57.679Z,35.00
2022-11-29T05:51:54.688Z,27.95
2022-11-29T05:56:57.597Z,29.23
2022-11-29T06:01:19.531Z,28.27
2022-11-29T06:06:16.177Z,29.70
2022-11-29T06:10:51.971Z,27.00
2022-11-29T06:16:14.251Z,26.67
2022-11-29T06:20:53.053Z,27.95
2022-11-29T06:25:39.392Z,26.05
2022-11-29T06:30:09.361Z,25.58
2022-11-29T06:34:53.098Z,25.90
2022-11-29T06:39:15.301Z,25.95
2022-11-29T06:43:37.436Z,28.30
2022-11-29T06:48:06.503Z,23.67
2022-11-29T06:52:55.330Z,26.90
2022-11-29T06:58:05.801Z,25.10
2022-11-29T07:03:02.070Z,23.08
2022-11-29T07:07:24.380Z,24.45
2022-11-29T07:11:48.139Z,22.35
2022-11-29T07:16:38.503Z,23.77
2022-11-29T07:21:37.573Z,21.55
2022-11-29T07:26:18.166Z,21.38
2022-11-29T07:31:26.204Z,20.80
2022-11-29T07:36:03.964Z,22.33
2022-11-29T07:40:51.451Z,23.75
2022-11-29T07:45:32.122Z,22.13
2022-11-29T07:49:53.854Z,21.45
2022-11-29T07:54:19.795Z,22.00
2022-11-29T07:58:41.644Z,21.15
2022-11-29T08:03:04.607Z,20.77
2022-11-29T08:07:26.543Z,19.95
2022-11-29T08:11:48.960Z,21.45
2022-11-29T08:16:17.991Z,17.80
2022-11-29T08:20:41.993Z,18.50
2022-11-29T08:25:05.335Z,19.38
2022-11-29T08:29:27.396Z,16.80
2022-11-29T08:33:49.257Z,21.23
2022-11-29T08:38:11.244Z,17.55
2022-11-29T08:42:33.232Z,19.83
2022-11-29T08:47:13.996Z,16.52
2022-11-29T08:51:36.046Z,19.60
2022-11-29T08:56:00.311Z,17.60
2022-11-29T09:00:22.627Z,16.98
2022-11-29T09:04:45.161Z,17.02
2022-11-29T09:09:07.558Z,15.88
2022-11-29T09:13:29.596Z,16.77
2022-11-29T09:17:51.561Z,15.73
2022-11-29T09:22:13.554Z,15.75
2022-11-29T09:26:38.115Z,15.32
2022-11-29T09:31:13.525Z,17.58
2022-11-29T09:35:35.605Z,16.20
2022-11-29T09:39:57.514Z,19.20
2022-11-29T09:44:44.955Z,16.00
2022-11-29T09:49:47.353Z,15.48
2022-11-29T09:54:33.356Z,17.13
2022-11-29T09:59:01.940Z,15.45
2022-11-29T10:03:34.169Z,15.55
2022-11-29T10:08:06.341Z,14.43
2022-11-29T10:12:44.122Z,15.45
2022-11-29T10:17:36.780Z,13.82
2022-11-29T10:22:08.145Z,14.77
2022-11-29T10:26:34.960Z,13.43
2022-11-29T10:31:22.675Z,18.38
2022-11-29T10:35:46.361Z,13.57
2022-11-29T10:40:17.861Z,14.27
2022-11-29T10:44:39.721Z,13.38
2022-11-29T10:49:07.463Z,13.25
2022-11-29T10:53:37.819Z,13.10
2022-11-29T10:58:28.296Z,14.43
2022-11-29T11:02:50.331Z,14.98
2022-11-29T11:07:35.731Z,12.25
2022-11-29T11:12:04.432Z,14.48
2022-11-29T11:16:34.272Z,15.27
2022-11-29T11:21:02.082Z,13.60
2022-11-29T11:25:34.717Z,11.27
2022-11-29T11:29:56.722Z,13.98
2022-11-29T11:34:38.185Z,12.85
2022-11-29T11:39:19.321Z,13.40
2022-11-29T11:43:41.207Z,13.80
2022-11-29T11:48:15.945Z,13.60
2022-11-29T11:52:54.531Z,13.63
2022-11-29T11:57:21.150Z,13.32
2022-11-29T12:01:43.302Z,12.90
2022-11-29T12:06:26.843Z,14.88
2022-11-29T12:10:53.874Z,14.35
2022-11-29T12:15:41.567Z,12.50
2022-11-29T12:20:12.469Z,17.30
2022-11-29T12:24:58.505Z,15.00
2022-11-29T12:29:22.907Z,13.75
2022-11-29T12:34:24.959Z,13.85
2022-11-29T12:39:20.949Z,13.48
2022-11-29T12:44:19.293Z,13.40
2022-11-29T12:49:15.280Z,12.80
2022-11-29T12:54:08.554Z,12.95
2022-11-29T12:58:54.188Z,14.00
2022-11-29T13:03:37.388Z,14.27
2022-11-29T13:08:36.913Z,17.40
2022-11-29T13:13:38.956Z,12.75
2022-11-29T13:18:05.375Z,15.00
2022-11-29T13:23:14.783Z,14.68
2022-11-29T13:27:49.262Z,16.13
2022-11-29T13:32:52.550Z,14.00
2022-11-29T13:37:47.459Z,17.23
2022-11-29T13:42:51.094Z,16.63
2022-11-29T13:47:16.734Z,17.25
2022-11-29T13:51:38.931Z,17.02
2022-11-29T13:56:01.977Z,14.95
2022-11-29T14:00:53.330Z,14.80
2022-11-29T14:05:27.216Z,15.50
2022-11-29T14:10:28.631Z,18.50
2022-11-29T14:15:01.619Z,16.20
2022-11-29T14:19:36.238Z,14.68
2022-11-29T14:24:36.531Z,17.63
2022-11-29T14:28:59.524Z,16.27
2022-11-29T14:33:44.096Z,14.60
2022-11-29T14:38:31.153Z,17.55
2022-11-29T14:42:53.693Z,18.05
2022-11-29T14:47:29.712Z,19.00
2022-11-29T14:52:12.954Z,17.73
2022-11-29T14:56:38.985Z,18.13
2022-11-29T15:01:09.663Z,20.02
2022-11-29T15:05:48.879Z,20.02
2022-11-29T15:10:21.566Z,17.15
2022-11-29T15:15:10.947Z,18.83
2022-11-29T15:20:15.113Z,17.92
2022-11-29T15:25:03.143Z,20.25
2022-11-29T15:29:27.555Z,21.00
2022-11-29T15:33:50.680Z,21.60
2022-11-29T15:38:19.694Z,19.63
2022-11-29T15:43:26.280Z,20.35
2022-11-29T15:47:48.149Z,21.23
2022-11-29T15:52:36.398Z,24.50
2022-11-29T15:57:34.920Z,24.52
2022-11-29T16:02:01.895Z,27.13
2022-11-29T16:06:42.631Z,24.63
2022-11-29T16:11:06.761Z,25.50
2022-11-29T16:15:38.788Z,29.23
2022-11-29T16:20:19.093Z,25.30
2022-11-29T16:25:14.750Z,26.05
2022-11-29T16:29:39.004Z,26.52
2022-11-29T16:34:18.436Z,30.58
2022-11-29T16:38:50.090Z,21.27
2022-11-29T16:43:42.654Z,28.98
2022-11-29T16:48:26.939Z,29.10
2022-11-29T16:52:56.087Z,29.65
2022-11-29T16:57:18.900Z,28.88
2022-11-29T17:01:40.609Z,31.13
2022-11-29T17:06:02.893Z,29.60
2022-11-29T17:10:25.734Z,33.05
2022-11-29T17:14:48.000Z,32.50
2022-11-29T17:19:13.574Z,38.80
2022-11-29T17:23:35.619Z,37.08
2022-11-29T17:27:58.057Z,37.05
2022-11-29T17:32:26.223Z,37.33
2022-11-29T17:36:48.888Z,33.80
2022-11-29T17:41:21.021Z,37.33
2022-11-29T17:45:43.120Z,37.90
2022-11-29T17:50:05.610Z,36.78
2022-11-29T17:54:27.710Z,39.53
2022-11-29T17:58:54.573Z,34.13
2022-11-29T18:03:16.424Z,32.28
2022-11-29T18:07:57.924Z,36.30
2022-11-29T18:12:20.231Z,32.60
2022-11-29T18:16:42.941Z,34.17
2022-11-29T18:21:08.534Z,35.90
2022-11-29T18:25:38.690Z,30.85
2022-11-29T18:30:01.299Z,33.55
2022-11-29T18:34:23.347Z,33.88
2022-11-29T18:38:46.884Z,35.95
2022-11-29T18:43:09.020Z,32.45
2022-11-29T18:47:32.969Z,33.30
2022-11-29T18:51:55.049Z,36.38
2022-11-29T18:56:22.281Z,34.88
2022-11-29T19:00:44.559Z,40.47
2022-11-29T19:05:06.866Z,34.72
2022-11-29T19:09:29.027Z,37.13
2022-11-29T19:13:57.784Z,34.55
2022-11-29T19:18:20.308Z,36.75
2022-11-29T19:22:42.111Z,34.95
2022-11-29T19:27:04.770Z,34.80
2022-11-29T19:31:27.574Z,31.50
2022-11-29T19:35:49.536Z,31.83
2022-11-29T19:40:12.576Z,31.38
2022-11-29T19:44:54.256Z,28.83
2022-11-29T19:49:16.429Z,30.08
2022-11-29T19:53:39.044Z,31.23
2022-11-29T19:58:01.086Z,27.80
2022-11-29T20:02:24.354Z,27.23
2022-11-29T20:06:48.488Z,30.27
2022-11-29T20:11:19.965Z,29.73
2022-11-29T20:15:42.017Z,32.40
2022-11-29T20:20:05.850Z,30.92
2022-11-29T20:24:27.979Z,32.03
2022-11-29T20:28:51.391Z,29.83
2022-11-29T20:38:28.941Z,32.38
2022-11-29T20:43:11.342Z,27.08
2022-11-29T20:47:41.103Z,27.45
2022-11-29T20:52:07.293Z,27.40
2022-11-29T20:56:29.307Z,29.67
2022-11-29T21:00:51.473Z,30.73
2022-11-29T21:05:14.111Z,30.23
2022-11-29T21:09:35.926Z,29.10
2022-11-29T21:13:58.321Z,28.70
2022-11-29T21:18:27.348Z,31.52
2022-11-29T21:23:22.940Z,31.67
2022-11-29T21:27:45.779Z,33.65
2022-11-29T21:32:19.340Z,35.70
2022-11-29T21:36:41.787Z,29.40
2022-11-29T21:41:03.476Z,30.40
2022-11-29T21:45:25.518Z,36.00
2022-11-29T21:49:47.568Z,33.03
2022-11-29T21:54:09.457Z,35.85
2022-11-29T21:58:33.026Z,36.50
2022-11-29T22:02:56.594Z,37.42
2022-11-29T22:07:18.264Z,40.97
2022-11-29T22:11:41.049Z,39.53
2022-11-29T22:16:10.599Z,37.38
2022-11-29T22:20:32.439Z,40.33
2022-11-29T22:24:54.345Z,40.53
2022-11-29T22:29:16.942Z,39.05
2022-11-29T22:33:40.054Z,38.60
2022-11-29T22:38:01.680Z,35.85
2022-11-29T22:42:25.225Z,40.08
2022-11-29T22:46:47.360Z,34.88
2022-11-29T22:51:14.696Z,35.40
2022-11-29T22:55:36.434Z,35.38
2022-11-29T22:59:58.423Z,38.30
2022-11-29T23:04:20.389Z,37.78
2022-11-29T23:08:44.722Z,36.05
2022-11-29T23:13:06.996Z,39.78
2022-11-29T23:17:30.361Z,38.60
2022-11-29T23:21:52.255Z,35.38
2022-11-29T23:26:20.534Z,37.00
2022-11-29T23:30:42.332Z,41.90
2022-11-29T23:35:04.066Z,35.88
2022-11-29T23:39:26.008Z,37.47
2022-11-29T23:43:48.050Z,40.50
2022-11-29T23:48:09.996Z,34.80
2022-11-29T23:52:31.960Z,39.33
2022-11-29T23:56:53.977Z,38.40
